Архив погоды в Екатерино-Никольском

Метеограмма Екатерино-Никольское
Понедельник, 25 Июня
Время местн. Темп Ветер Видим Явления Облачность нижн/средн/верх Атм. давл. Влжн Точка росы ВНГО R Сост. почвы Tg s
Напр Скр Прв ур.ст ур.м изм
10:00 +17° В 3 - более 50 км - облачно 753 759 -0.5 66% +10.5° 1 км - - - -
07:00 +13.1° В,С-В 2 - более 50 км - облачно 753 760 +0.3 87% +11° 1 км 0 Влажная (без луж) +13° -
04:00 +13° С-В 3 - 20 км - облачно 753 760 +1.1 86% +10.7° 1 км - - - -
01:00 +14.9° В 4 - 20 км - облачно 752 759 +1.5 81% +11.7° 1 км - - - -
Воскресенье, 24 Июня
Время местн. Темп Ветер Видим Явления Облачность нижн/средн/верх Атм. давл. Влжн Точка росы ВНГО R Сост. почвы Tg s
Напр Скр Прв ур.ст ур.м изм
22:00 +17.1° В,С-В 1 - 20 км - облачно 751 757 +0.9 85% +14.5° 1 км - - - -
19:00 +19.9° штиль 0 - более 50 км - облачно 750 756 +0.8 66% +13.3° 1 км 0 - - -
16:00 +19.8° В,Ю-В 2 - более 50 км - облачно 749 755 +0.7 62% +12.3° 1 км - - - -
13:00 +20.6° С 2 - 50 км - облачно 748 755 +0.5 56% +11.5° 1 км - - - -
10:00 +19.2° В,С-В 2 - 50 км - переменная облачность 748 754 +0.8 59% +10.9° 1 км - - - -
07:00 +15.6° С,С-В 2 - 50 км - облачно 747 753 +0.8 88% +13.6° 1 км 1 Влажная (без луж) - -
04:00 +14.4° С-З 2 - 20 км - облачно 746 753 +0.1 93% +13.3° 1 км - - - -
01:00 +14.5° штиль 0 - 20 км - облачно 746 753 +0.3 94% +13.6° 1 км - - - -
Суббота, 23 Июня
Время местн. Темп Ветер Видим Явления Облачность нижн/средн/верх Атм. давл. Влжн Точка росы ВНГО R Сост. почвы Tg s
Напр Скр Прв ур.ст ур.м изм
22:00 +15.7° В 1 - 20 км небо без изменений {ливневые осадки} облачно 746 752 +1.2 92% +14.4° 1 км - - - -
19:00 +18° В 3 - 20 км - облачно 745 751 +1.1 83% +15° 1 км 8 - - -
16:00 +21.9° С-З 5 11 более 50 км - облачно 744 750 +0.2 57% +12.9° 1 км - - - -
13:00 +20.6° С-З 4 - 50 км - облачно с прояснениями 744 750 +0.4 63% +13.4° 1 км - - - -
10:00 +17.5° С-З 6 - 50 км - облачно с прояснениями 743 749 +0.8 71% +12.1° 1 км - - - -
07:00 +15.8° С-З 4 - более 50 км - переменная облачность 742 749 +1.7 85% +13.2° 1 км 8 Влажная (без луж) +12° -
04:00 +13.9° С-З 3 - 20 км - переменная облачность 741 747 -0.4 96% +13.3° более 2.5 км - - - -
01:00 +14.8° З 1 - 20 км небо без изменений {гроза} переменная облачность 741 747 0 96% +14.1° более 2.5 км - - - -
Пятница, 22 Июня
Время местн. Темп Ветер Видим Явления Облачность нижн/средн/верх Атм. давл. Влжн Точка росы ВНГО R Сост. почвы Tg s
Напр Скр Прв ур.ст ур.м изм
22:00 +15.7° В 1 15 4 км слабая или умеренная гроза с осадками облачно 741 747 +1.8 93% +14.5° 1 км - - - -
19:00 +24.9° Ю 3 - более 50 км - облачно 739 745 -1.2 58% +16.1° 1 км 0.7 - - -
16:00 +24.1° Ю 4 - более 50 км небо без изменений {гроза} облачно 741 747 -1.8 60% +15.9° 1 км - - - -
13:00 +22.3° Ю 4 - 50 км - облачно 742 749 -1.1 66% +15.6° 1 км - - - -
10:00 +15.9° Ю,Ю-В 1 - 10 км слабая или умеренная гроза с осадками облачно 744 750 -0.2 92% +14.6° 1 км - - - -
07:00 +13.1° С-З 3 - 20 км - облачно 744 750 +0.7 88% +11.1° 1 км 0 Влажная (без луж) - -